Time;durP1;ratioP1;P1;durP2;ratioP2;P2;SDS_P1;SDS_P2;PMS_P1;PMS_P2;Temp;Humidity;BMP_temperature;BMP_pressure;BME280_temperature;BME280_humidity;BME280_pressure;Samples;Min_cycle;Max_cycle;Signal;HPM_P1;HPM_P2
2022/07/22 00:00:27;;;;;;;21.73;6.00;;;;;;;23.88;45.73;95221.28;5135107;27;20432;-84
2022/07/22 00:02:52;;;;;;;14.15;5.85;;;;;;;24.47;45.26;95277.03;5121510;27;20027;-85
2022/07/22 00:05:18;;;;;;;12.90;6.18;;;;;;;24.52;45.72;95285.66;5135591;27;20038;-84
2022/07/22 00:07:43;;;;;;;17.08;6.22;;;;;;;24.40;45.92;95277.69;5151332;27;20031;-84
2022/07/22 00:10:10;;;;;;;12.68;6.25;;;;;;;24.26;45.89;95268.50;5117809;27;20035;-84
2022/07/22 00:12:36;;;;;;;12.15;5.93;;;;;;;24.71;45.68;95339.06;5135943;27;20035;-84
2022/07/22 00:15:03;;;;;;;14.15;5.95;;;;;;;23.75;46.05;95188.16;5116725;27;20029;-84
2022/07/22 00:17:29;;;;;;;16.63;6.20;;;;;;;24.18;46.18;95256.72;5131258;27;20069;-85
2022/07/22 00:19:54;;;;;;;17.92;6.43;;;;;;;24.23;45.91;95267.28;5113586;27;20039;-84
2022/07/22 00:22:20;;;;;;;15.82;5.82;;;;;;;24.40;45.85;95302.09;5134998;27;20094;-85
2022/07/22 00:24:45;;;;;;;17.60;6.25;;;;;;;24.43;46.44;95316.84;5113144;28;20097;-84
2022/07/22 00:27:11;;;;;;;15.88;6.10;;;;;;;24.20;46.49;95289.66;5115346;27;20567;-85
2022/07/22 00:29:36;;;;;;;16.50;6.25;;;;;;;23.79;46.67;95243.19;5135175;27;20019;-84
2022/07/22 00:32:01;;;;;;;14.90;6.00;;;;;;;23.92;46.35;95259.28;5115711;27;20026;-84
2022/07/22 00:34:27;;;;;;;18.85;6.00;;;;;;;24.39;45.82;95330.34;5112012;28;20031;-85
2022/07/22 00:36:52;;;;;;;17.00;6.30;;;;;;;22.97;45.64;95123.47;5125144;27;20078;-84
2022/07/22 00:39:18;;;;;;;15.45;5.78;;;;;;;23.82;45.43;95272.25;5141820;27;20035;-85
2022/07/22 00:41:44;;;;;;;15.35;6.57;;;;;;;23.84;45.52;95258.34;5121623;27;20027;-84
2022/07/22 00:44:09;;;;;;;14.00;6.03;;;;;;;23.78;45.13;95248.94;5116061;27;20049;-85
2022/07/22 00:46:37;;;;;;;13.80;5.72;;;;;;;24.35;44.74;95347.66;5134590;27;20050;-84
2022/07/22 00:49:05;;;;;;;10.15;5.35;;;;;;;23.80;44.75;95281.88;5118037;27;20118;-85
2022/07/22 00:51:30;;;;;;;12.25;5.10;;;;;;;21.74;44.58;94941.91;5115578;27;20042;-84
2022/07/22 00:53:56;;;;;;;16.10;5.47;;;;;;;23.92;44.67;95286.38;5133212;27;20027;-84
2022/07/22 00:56:23;;;;;;;9.38;4.82;;;;;;;23.97;44.48;95291.50;5112552;28;20047;-84
2022/07/22 00:58:51;;;;;;;11.45;5.32;;;;;;;23.65;44.32;95255.63;5110528;28;20031;-84
2022/07/22 01:01:17;;;;;;;13.82;4.90;;;;;;;23.78;44.44;95290.34;5125758;27;20141;-85
2022/07/22 01:03:43;;;;;;;15.80;5.43;;;;;;;23.87;44.12;95284.72;5127462;27;20031;-84
2022/07/22 01:06:09;;;;;;;9.55;4.93;;;;;;;23.18;44.63;95194.28;5114672;27;20034;-84
2022/07/22 01:08:34;;;;;;;13.52;5.57;;;;;;;23.91;44.54;95317.28;5111160;28;20019;-85
2022/07/22 01:11:15;;;;;;;8.98;5.00;;;;;;;23.92;44.50;95318.88;5113525;27;20031;-85
2022/07/22 01:13:41;;;;;;;10.35;5.22;;;;;;;23.09;44.33;95190.97;5111681;28;20035;-84
2022/07/22 01:16:09;;;;;;;11.55;5.32;;;;;;;23.99;44.38;95330.63;5109150;27;20037;-84
2022/07/22 01:18:35;;;;;;;15.98;5.18;;;;;;;23.67;44.57;95297.44;5126647;27;20489;-84
2022/07/22 01:21:00;;;;;;;9.05;5.30;;;;;;;23.19;44.55;95208.59;5133646;27;20144;-84
2022/07/22 01:23:26;;;;;;;11.63;5.20;;;;;;;23.31;44.44;95224.69;5111336;28;20063;-84
2022/07/22 01:25:51;;;;;;;13.45;4.93;;;;;;;24.00;44.67;95329.50;5130966;27;20026;-84
2022/07/22 01:28:17;;;;;;;9.25;4.68;;;;;;;23.27;44.81;95231.94;5133978;27;20052;-84
2022/07/22 01:30:42;;;;;;;12.75;5.15;;;;;;;23.93;44.47;95328.56;5134369;27;20023;-84
2022/07/22 01:33:08;;;;;;;8.98;4.47;;;;;;;23.63;44.43;95287.69;5128459;27;20023;-84
2022/07/22 01:35:33;;;;;;;10.63;5.38;;;;;;;23.64;44.83;95300.88;5115257;27;20492;-84
2022/07/22 01:37:59;;;;;;;10.48;4.47;;;;;;;23.70;44.71;95304.09;5115845;28;20031;-84
2022/07/22 01:40:24;;;;;;;9.73;4.22;;;;;;;23.42;44.45;95255.50;5119750;28;20027;-84
2022/07/22 01:42:50;;;;;;;10.13;4.43;;;;;;;23.42;45.03;95280.63;5135471;27;20065;-85
2022/07/22 01:45:15;;;;;;;13.90;4.63;;;;;;;23.66;45.01;95314.03;5115436;28;20042;-84
2022/07/22 01:47:41;;;;;;;10.98;4.50;;;;;;;23.69;44.70;95303.31;5106711;28;20141;-85
2022/07/22 01:50:09;;;;;;;8.32;4.45;;;;;;;23.53;44.92;95294.44;5114298;28;20560;-85
2022/07/22 01:52:34;;;;;;;13.77;4.80;;;;;;;23.09;45.25;95236.97;5146158;27;20050;-85
2022/07/22 01:55:00;;;;;;;8.55;5.32;;;;;;;23.44;45.41;95296.50;5130992;28;20034;-85
2022/07/22 01:57:26;;;;;;;15.82;5.28;;;;;;;23.53;45.41;95296.34;5110855;28;20043;-85
2022/07/22 01:59:51;;;;;;;8.85;3.88;;;;;;;23.40;45.63;95276.72;5111260;28;20046;-84
2022/07/22 02:02:17;;;;;;;16.95;4.65;;;;;;;23.39;45.47;95272.44;5114885;28;20027;-84
2022/07/22 02:04:42;;;;;;;8.57;4.25;;;;;;;23.17;45.70;95262.25;5114653;28;20031;-85
2022/07/22 02:07:08;;;;;;;12.82;5.22;;;;;;;23.72;45.95;95334.31;5114041;28;20080;-85
2022/07/22 02:09:33;;;;;;;17.15;5.10;;;;;;;23.14;45.88;95276.47;5114315;28;20118;-85
2022/07/22 02:11:59;;;;;;;9.73;5.00;;;;;;;23.57;46.39;95345.97;5113793;27;20016;-85
2022/07/22 02:14:24;;;;;;;17.45;5.35;;;;;;;22.99;46.33;95286.97;5123752;28;20035;-85
2022/07/22 02:16:50;;;;;;;13.80;5.80;;;;;;;23.05;46.09;95265.84;5145733;27;20274;-85
2022/07/22 02:19:15;;;;;;;11.82;5.10;;;;;;;22.71;46.96;95276.19;5125379;28;20038;-85
2022/07/22 02:21:41;;;;;;;9.88;4.57;;;;;;;22.84;46.77;95266.09;5133057;28;20038;-86
2022/07/22 02:24:06;;;;;;;10.50;5.90;;;;;;;23.31;46.50;95319.41;5114906;28;20111;-85
2022/07/22 02:26:32;;;;;;;10.55;5.72;;;;;;;22.69;46.64;95231.72;5125780;28;20115;-85
2022/07/22 02:28:57;;;;;;;10.52;5.63;;;;;;;23.29;46.77;95335.19;5116842;28;20035;-85
2022/07/22 02:31:23;;;;;;;13.35;6.35;;;;;;;23.53;46.66;95356.69;5132855;28;20128;-84
2022/07/22 02:33:49;;;;;;;13.38;5.78;;;;;;;22.84;47.25;95268.03;5132632;28;20038;-84
2022/07/22 02:36:15;;;;;;;10.38;5.70;;;;;;;23.45;46.73;95358.41;5112481;28;20055;-84
2022/07/22 02:38:40;;;;;;;13.40;5.90;;;;;;;22.98;47.25;95307.03;5115002;28;20039;-84
2022/07/22 02:41:06;;;;;;;19.20;6.00;;;;;;;22.37;47.69;95235.50;5116444;28;20065;-85
2022/07/22 02:43:31;;;;;;;16.98;6.15;;;;;;;22.08;48.16;95201.56;5115396;28;20046;-84
2022/07/22 02:45:57;;;;;;;11.65;5.85;;;;;;;22.97;48.38;95347.94;5110475;28;20088;-84
2022/07/22 02:48:22;;;;;;;13.43;6.40;;;;;;;22.09;48.09;95208.56;5105062;27;20039;-84
2022/07/22 02:50:48;;;;;;;11.80;5.93;;;;;;;22.56;48.11;95271.56;5109567;28;20035;-85
2022/07/22 02:53:14;;;;;;;13.80;5.63;;;;;;;22.90;48.71;95351.25;5116414;28;20035;-84
2022/07/22 02:55:39;;;;;;;16.40;6.63;;;;;;;22.71;48.37;95327.56;5108790;27;20070;-84
2022/07/22 02:58:09;;;;;;;12.70;6.45;;;;;;;22.06;47.97;95193.03;5136540;27;20409;-84
2022/07/22 03:00:37;;;;;;;14.25;6.25;;;;;;;22.99;48.65;95359.19;5118432;27;20035;-86
2022/07/22 03:03:03;;;;;;;12.88;5.90;;;;;;;22.53;48.33;95280.34;5117962;27;20039;-85
2022/07/22 03:05:29;;;;;;;11.77;6.20;;;;;;;22.72;48.39;95317.53;5136510;27;20038;-85
2022/07/22 03:07:55;;;;;;;14.70;6.78;;;;;;;21.84;48.71;95172.75;5117642;27;20106;-85
2022/07/22 03:10:20;;;;;;;15.02;6.95;;;;;;;22.56;48.63;95284.28;5094430;28;20498;-85
2022/07/22 03:12:46;;;;;;;10.77;5.75;;;;;;;22.48;48.81;95287.94;5116729;28;20044;-85
2022/07/22 03:15:11;;;;;;;13.38;6.30;;;;;;;22.32;48.82;95258.19;5131104;27;20042;-85
2022/07/22 03:17:37;;;;;;;13.35;5.72;;;;;;;22.12;48.89;95222.16;5096119;28;20031;-84
2022/07/22 03:20:07;;;;;;;14.52;6.53;;;;;;;22.64;49.17;95321.97;5097294;28;20417;-85
2022/07/22 03:22:32;;;;;;;19.08;7.88;;;;;;;22.97;48.99;95350.63;5131388;27;20028;-84
2022/07/22 03:24:58;;;;;;;9.13;6.05;;;;;;;22.53;48.77;95285.75;5097098;28;20493;-84
2022/07/22 03:27:23;;;;;;;19.05;7.43;;;;;;;21.64;49.82;95236.59;5096039;28;20044;-84
2022/07/22 03:29:49;;;;;;;33.63;7.63;;;;;;;22.36;49.98;95355.53;5115477;28;20039;-85
2022/07/22 03:32:14;;;;;;;20.85;7.28;;;;;;;21.55;50.35;95247.53;5106572;28;20122;-84
2022/07/22 03:34:40;;;;;;;11.82;5.85;;;;;;;21.96;49.02;95272.63;5104584;28;20122;-84
2022/07/22 03:37:05;;;;;;;23.33;7.00;;;;;;;22.37;49.04;95360.59;5095701;28;20055;-84
2022/07/22 03:39:31;;;;;;;17.48;6.85;;;;;;;22.61;48.62;95360.50;5097063;28;20040;-85
2022/07/22 03:41:56;;;;;;;25.88;7.60;;;;;;;22.39;49.69;95323.22;5096250;28;20122;-85
2022/07/22 03:44:22;;;;;;;25.33;8.23;;;;;;;22.47;49.09;95375.53;5093011;28;20052;-85
2022/07/22 03:46:47;;;;;;;16.95;7.18;;;;;;;22.03;49.19;95267.44;5095311;27;20023;-85
2022/07/22 03:49:13;;;;;;;17.52;7.68;;;;;;;22.71;48.86;95375.44;5116496;27;20035;-84
2022/07/22 03:51:38;;;;;;;16.48;6.88;;;;;;;22.31;48.62;95292.50;5113507;27;20027;-84
2022/07/22 03:54:03;;;;;;;38.80;7.25;;;;;;;22.43;48.58;95302.47;5096188;28;20034;-85
2022/07/22 03:56:29;;;;;;;19.15;7.38;;;;;;;21.76;48.42;95216.88;5134602;27;20109;-85
2022/07/22 03:58:54;;;;;;;15.45;6.78;;;;;;;21.90;48.41;95263.94;5109968;28;20038;-84
2022/07/22 04:01:20;;;;;;;17.55;7.07;;;;;;;22.09;48.09;95298.47;5100863;28;20589;-85
2022/07/22 04:03:45;;;;;;;18.60;6.82;;;;;;;21.62;47.84;95227.28;5107401;28;20542;-84
2022/07/22 04:06:11;;;;;;;16.02;6.65;;;;;;;21.51;49.21;95276.31;5092706;28;20051;-84
2022/07/22 04:08:36;;;;;;;17.58;6.55;;;;;;;22.19;48.84;95365.50;5096077;28;20032;-85
2022/07/22 04:11:02;;;;;;;20.05;7.10;;;;;;;22.13;48.52;95355.25;5114779;28;20031;-85
2022/07/22 04:13:27;;;;;;;28.50;8.05;;;;;;;22.27;49.01;95386.19;5113881;28;20035;-85
2022/07/22 04:15:53;;;;;;;11.43;6.40;;;;;;;22.54;48.44;95383.84;5111507;27;20115;-84
2022/07/22 04:18:18;;;;;;;20.13;6.88;;;;;;;21.61;48.84;95263.47;5115232;27;20037;-85
2022/07/22 04:20:43;;;;;;;17.40;7.43;;;;;;;21.47;48.59;95243.03;5115915;27;20034;-85
2022/07/22 04:23:09;;;;;;;53.35;14.07;;;;;;;21.81;48.49;95313.81;5114408;27;20086;-84
2022/07/22 04:25:35;;;;;;;72.32;18.80;;;;;;;21.97;47.69;95289.63;5114621;27;20191;-85
2022/07/22 04:28:00;;;;;;;17.50;7.10;;;;;;;22.24;47.43;95338.25;5095242;28;20166;-84
2022/07/22 04:30:26;;;;;;;21.80;7.97;;;;;;;22.38;47.00;95345.16;5116200;27;20195;-85
2022/07/22 04:32:51;;;;;;;14.50;6.13;;;;;;;22.40;46.88;95318.59;5109310;28;20024;-84
2022/07/22 04:35:17;;;;;;;21.50;7.70;;;;;;;22.84;46.55;95370.78;5102660;27;20833;-85
2022/07/22 04:37:42;;;;;;;14.02;7.07;;;;;;;22.85;46.63;95370.44;5133928;27;20135;-85
2022/07/22 04:40:08;;;;;;;26.70;7.45;;;;;;;22.90;46.33;95370.16;5105637;28;20023;-85
2022/07/22 04:42:34;;;;;;;13.85;6.63;;;;;;;21.82;46.84;95245.97;5090013;28;20470;-84
2022/07/22 04:44:59;;;;;;;22.35;6.78;;;;;;;22.52;46.89;95345.56;5105333;28;20035;-84
2022/07/22 04:47:25;;;;;;;14.82;7.18;;;;;;;22.75;46.48;95356.63;5092956;28;20115;-84
2022/07/22 04:49:50;;;;;;;17.85;6.88;;;;;;;22.53;46.71;95314.69;5094958;28;20028;-84
2022/07/22 04:52:16;;;;;;;23.67;7.55;;;;;;;22.87;46.86;95373.59;5094411;28;20248;-85
2022/07/22 04:54:41;;;;;;;17.20;7.43;;;;;;;22.58;46.46;95330.69;5113478;27;20030;-85
2022/07/22 04:57:06;;;;;;;21.42;7.80;;;;;;;22.74;46.58;95349.63;5133297;27;20122;-84
2022/07/22 04:59:32;;;;;;;20.17;6.95;;;;;;;22.22;46.08;95308.09;5095387;28;20064;-84
2022/07/22 05:01:57;;;;;;;15.75;6.43;;;;;;;23.13;46.01;95420.97;5105866;27;20393;-85
2022/07/22 05:04:23;;;;;;;18.27;6.30;;;;;;;22.74;45.78;95338.81;5102804;28;20061;-84
2022/07/22 05:06:48;;;;;;;18.33;6.80;;;;;;;22.37;46.59;95274.13;5125746;27;20024;-85
2022/07/22 05:09:14;;;;;;;19.02;7.22;;;;;;;22.62;45.98;95309.94;5093818;28;20027;-84
2022/07/22 05:11:39;;;;;;;11.57;6.18;;;;;;;22.58;44.86;95311.75;5094513;28;20050;-84
2022/07/22 05:14:05;;;;;;;19.23;7.05;;;;;;;22.98;45.07;95325.94;5114197;28;20053;-85
2022/07/22 05:16:30;;;;;;;16.92;7.13;;;;;;;22.91;45.19;95346.63;5091927;28;20027;-84
2022/07/22 05:18:56;;;;;;;17.55;7.03;;;;;;;23.48;45.48;95400.28;5095427;28;20027;-84
2022/07/22 05:21:21;;;;;;;21.23;7.43;;;;;;;23.15;45.44;95337.56;5094285;28;20558;-84
2022/07/22 05:23:47;;;;;;;23.83;7.32;;;;;;;23.09;45.00;95316.19;5113127;28;20099;-85
2022/07/22 05:26:12;;;;;;;26.38;6.57;;;;;;;22.96;44.82;95295.00;5113662;28;20031;-85
2022/07/22 05:28:37;;;;;;;17.05;7.00;;;;;;;22.64;43.26;95251.69;5113262;28;20099;-85
2022/07/22 05:31:03;;;;;;;15.10;6.63;;;;;;;23.59;43.58;95416.75;5112149;28;20051;-84
2022/07/22 05:33:29;;;;;;;16.95;5.85;;;;;;;23.13;43.52;95329.00;5102710;27;20035;-84
2022/07/22 05:35:54;;;;;;;19.98;6.18;;;;;;;23.12;43.15;95314.69;5112109;28;20043;-84
2022/07/22 05:38:20;;;;;;;15.90;6.53;;;;;;;23.64;43.25;95381.31;5113388;28;20505;-84
2022/07/22 05:40:46;;;;;;;18.63;6.88;;;;;;;23.16;43.43;95312.09;5113254;28;20024;-84
2022/07/22 05:43:11;;;;;;;17.63;6.43;;;;;;;21.77;43.12;95081.56;5113490;28;20524;-84
2022/07/22 05:45:37;;;;;;;11.77;5.95;;;;;;;23.57;43.18;95349.44;5119777;27;20043;-84
2022/07/22 05:48:02;;;;;;;15.98;7.00;;;;;;;23.96;43.25;95396.34;5105656;28;20482;-85
2022/07/22 05:50:28;;;;;;;17.65;6.65;;;;;;;24.18;43.27;95400.34;5093650;28;20447;-84
2022/07/22 05:52:53;;;;;;;18.73;6.85;;;;;;;23.78;43.28;95322.06;5113004;28;20579;-84
2022/07/22 05:55:19;;;;;;;17.13;6.18;;;;;;;24.18;43.90;95384.06;5104011;28;20036;-84
2022/07/22 05:57:44;;;;;;;24.67;7.68;;;;;;;24.06;43.47;95374.13;5110695;28;20149;-84
2022/07/22 06:00:10;;;;;;;19.17;7.32;;;;;;;24.06;43.59;95355.16;5119226;28;20100;-84
2022/07/22 06:02:35;;;;;;;18.10;7.57;;;;;;;24.25;43.56;95373.41;5094152;28;20035;-84
2022/07/22 06:05:01;;;;;;;16.63;7.13;;;;;;;24.22;43.23;95369.47;5124263;28;20109;-84
2022/07/22 06:07:27;;;;;;;25.10;7.85;;;;;;;24.55;42.97;95400.75;5111770;28;20444;-85
2022/07/22 06:09:53;;;;;;;24.88;7.25;;;;;;;24.74;42.90;95416.22;5111557;27;20118;-85
2022/07/22 06:12:18;;;;;;;21.10;6.72;;;;;;;23.62;43.10;95245.50;5097609;27;20041;-84
2022/07/22 06:14:44;;;;;;;27.23;8.00;;;;;;;24.37;43.61;95351.59;5103958;27;20656;-85
2022/07/22 06:17:09;;;;;;;26.92;8.80;;;;;;;24.47;43.14;95399.81;5115189;27;20485;-85
2022/07/22 06:19:35;;;;;;;15.55;8.00;;;;;;;23.93;43.13;95307.69;5120034;27;20453;-85
2022/07/22 06:22:00;;;;;;;24.42;7.72;;;;;;;24.52;42.98;95396.81;5097598;28;20036;-85
2022/07/22 06:24:26;;;;;;;27.33;7.50;;;;;;;24.73;43.34;95401.84;5101932;28;20113;-85
2022/07/22 06:26:51;;;;;;;24.25;7.20;;;;;;;24.26;43.92;95338.97;5115287;28;20412;-85
2022/07/22 06:29:17;;;;;;;23.70;7.38;;;;;;;23.26;43.21;95187.09;5115738;28;20460;-86
2022/07/22 06:31:42;;;;;;;26.73;7.95;;;;;;;24.81;42.70;95394.66;5116176;28;20035;-85
2022/07/22 06:34:08;;;;;;;27.05;8.38;;;;;;;24.69;42.61;95363.06;5093554;28;20039;-85
2022/07/22 06:36:34;;;;;;;24.75;8.13;;;;;;;24.80;42.80;95396.56;5108942;27;20058;-85
2022/07/22 06:38:59;;;;;;;28.50;8.25;;;;;;;24.17;43.00;95318.25;5100105;28;20047;-85
2022/07/22 06:41:25;;;;;;;18.40;7.50;;;;;;;24.90;42.45;95411.47;5094557;28;20099;-85
2022/07/22 06:43:50;;;;;;;19.30;6.80;;;;;;;24.88;42.28;95405.63;5078027;28;20042;-86
2022/07/22 06:46:16;;;;;;;28.92;6.97;;;;;;;24.80;42.36;95393.06;5114151;28;20049;-85
2022/07/22 06:48:41;;;;;;;16.13;6.95;;;;;;;24.08;42.53;95293.28;5093699;28;20084;-85
2022/07/22 06:51:07;;;;;;;18.55;6.45;;;;;;;24.47;42.55;95361.84;5078189;28;20127;-85
2022/07/22 06:53:32;;;;;;;18.83;6.60;;;;;;;24.33;42.60;95329.06;5082814;28;20036;-85
2022/07/22 06:55:58;;;;;;;19.90;8.10;;;;;;;24.42;42.22;95329.59;5080469;28;20083;-85
2022/07/22 06:58:23;;;;;;;30.65;8.98;;;;;;;24.89;42.45;95383.56;5093561;28;20028;-85
2022/07/22 07:00:49;;;;;;;20.17;6.65;;;;;;;24.93;42.23;95378.25;5084915;28;20028;-85
2022/07/22 07:03:14;;;;;;;23.58;7.20;;;;;;;24.97;41.60;95382.59;5073660;28;20035;-85
2022/07/22 07:05:40;;;;;;;18.30;7.03;;;;;;;25.19;41.15;95415.53;5092170;28;20503;-85
2022/07/22 07:08:05;;;;;;;20.30;6.60;;;;;;;24.79;41.51;95361.69;5087314;28;20035;-85
2022/07/22 07:10:31;;;;;;;18.52;6.97;;;;;;;24.73;42.12;95355.75;5112498;28;20034;-85
2022/07/22 07:12:58;;;;;;;23.83;7.35;;;;;;;25.07;41.22;95396.72;5082956;28;20414;-85
2022/07/22 07:15:25;;;;;;;19.50;6.95;;;;;;;24.75;40.91;95329.06;5081659;28;20055;-85
2022/07/22 07:17:56;;;;;;;12.23;5.30;;;;;;;25.12;40.49;95389.06;5075686;28;20032;-84
2022/07/22 07:20:22;;;;;;;17.38;6.13;;;;;;;25.02;40.08;95369.88;5075762;28;20105;-85
2022/07/22 07:22:47;;;;;;;17.33;5.78;;;;;;;25.30;40.11;95395.59;5094897;28;20047;-84
2022/07/22 07:25:14;;;;;;;28.08;6.22;;;;;;;25.52;39.71;95423.88;5093363;28;20442;-84
2022/07/22 07:27:39;;;;;;;15.82;5.93;;;;;;;25.51;39.72;95405.22;5092361;28;20046;-85
2022/07/22 07:30:05;;;;;;;16.75;5.60;;;;;;;25.67;39.48;95428.41;5075496;28;20101;-85
2022/07/22 07:32:31;;;;;;;16.10;5.57;;;;;;;25.32;40.00;95358.00;5071290;28;20526;-85
2022/07/22 07:34:56;;;;;;;17.88;5.88;;;;;;;25.77;40.14;95424.31;5089628;28;20068;-85
2022/07/22 07:37:22;;;;;;;19.02;6.43;;;;;;;25.96;40.28;95416.06;5123441;27;20547;-85
2022/07/22 07:39:48;;;;;;;15.60;5.35;;;;;;;25.84;39.34;95380.16;5150777;27;20064;-85
2022/07/22 07:42:13;;;;;;;19.10;6.20;;;;;;;25.05;39.18;95263.31;5135682;27;20031;-85
2022/07/22 07:44:39;;;;;;;14.57;6.22;;;;;;;25.59;39.25;95355.34;5115647;27;20034;-85
2022/07/22 07:47:05;;;;;;;21.10;7.03;;;;;;;25.64;39.06;95368.59;5134695;27;20038;-85
2022/07/22 07:49:30;;;;;;;18.92;6.65;;;;;;;25.61;39.23;95347.63;5124174;27;20042;-85
2022/07/22 07:51:55;;;;;;;14.98;6.22;;;;;;;26.16;38.64;95402.38;5148355;27;20030;-85
2022/07/22 07:54:21;;;;;;;21.58;5.28;;;;;;;25.73;38.46;95328.38;5120629;27;20138;-85
2022/07/22 07:56:46;;;;;;;17.70;5.20;;;;;;;25.81;38.22;95312.97;5108323;27;20045;-85
2022/07/22 07:59:12;;;;;;;13.50;5.30;;;;;;;26.20;37.49;95379.50;5130174;27;20110;-85
2022/07/22 08:01:38;;;;;;;16.85;5.55;;;;;;;25.61;37.70;95277.81;5140354;27;20122;-84
2022/07/22 08:04:04;;;;;;;16.02;5.85;;;;;;;26.62;38.01;95408.44;5135479;27;20027;-84
2022/07/22 08:06:29;;;;;;;20.77;6.25;;;;;;;26.53;37.35;95389.69;5133296;27;20030;-85
2022/07/22 08:08:55;;;;;;;11.35;4.32;;;;;;;24.76;35.70;95104.75;5115091;27;20100;-84
2022/07/22 08:11:20;;;;;;;12.27;5.40;;;;;;;26.53;36.32;95365.22;5126563;27;20023;-85
2022/07/22 08:13:46;;;;;;;12.48;5.38;;;;;;;26.94;36.31;95392.50;5148257;27;20035;-84
2022/07/22 08:16:11;;;;;;;17.27;4.78;;;;;;;27.05;35.90;95413.22;5115871;27;20058;-85
2022/07/22 08:18:37;;;;;;;11.98;4.53;;;;;;;25.77;35.24;95195.34;5119221;27;20035;-85
2022/07/22 08:21:02;;;;;;;12.70;5.68;;;;;;;25.53;35.68;95159.34;5152971;27;20090;-84
2022/07/22 08:23:28;;;;;;;11.43;4.88;;;;;;;26.32;35.24;95267.06;5143151;27;20031;-86
2022/07/22 08:25:53;;;;;;;8.50;4.68;;;;;;;26.61;34.50;95307.03;5112177;27;20027;-85
2022/07/22 08:28:18;;;;;;;16.15;4.63;;;;;;;27.02;33.97;95347.84;5118094;27;20091;-85
2022/07/22 08:30:44;;;;;;;13.55;4.60;;;;;;;27.51;33.48;95410.97;5136233;27;20106;-85
2022/07/22 08:33:10;;;;;;;14.30;4.80;;;;;;;27.53;34.07;95394.28;5123119;27;20035;-86
2022/07/22 08:35:35;;;;;;;13.80;5.22;;;;;;;27.74;34.20;95415.44;5124727;27;20527;-85
2022/07/22 08:38:01;;;;;;;7.55;4.47;;;;;;;27.22;33.92;95333.69;5132322;27;20109;-86
2022/07/22 08:40:26;;;;;;;12.88;4.50;;;;;;;27.44;34.50;95352.91;5122110;27;20029;-86
2022/07/22 08:42:52;;;;;;;10.55;5.10;;;;;;;27.45;34.24;95359.94;5129334;27;20023;-86
2022/07/22 08:45:19;;;;;;;13.38;4.82;;;;;;;27.27;34.29;95308.03;5109514;27;20034;-86
2022/07/22 08:47:49;;;;;;;18.38;5.13;;;;;;;27.18;34.01;95280.34;5141745;27;20030;-86
2022/07/22 08:50:16;;;;;;;15.60;5.60;;;;;;;26.97;34.57;95242.84;5134283;27;20035;-86
2022/07/22 08:52:42;;;;;;;19.67;5.60;;;;;;;27.66;33.71;95343.78;5131499;27;20027;-86
2022/07/22 08:55:08;;;;;;;10.30;4.75;;;;;;;28.10;32.17;95400.13;5137942;27;20026;-86
2022/07/22 08:57:36;;;;;;;11.27;4.38;;;;;;;27.92;32.13;95370.78;5119029;27;20050;-86
2022/07/22 09:00:11;;;;;;;14.88;4.07;;;;;;;27.51;31.94;95296.56;5115752;27;20079;-86
2022/07/22 09:02:38;;;;;;;10.43;4.78;;;;;;;28.29;31.69;95391.72;5143327;27;20039;-86
2022/07/22 09:05:06;;;;;;;12.50;4.95;;;;;;;28.07;31.49;95358.06;5142221;27;20027;-86
2022/07/22 09:07:38;;;;;;;9.40;4.22;;;;;;;28.44;30.91;95414.38;5116976;27;20096;-85
2022/07/22 09:10:06;;;;;;;13.55;4.80;;;;;;;28.03;31.94;95377.09;5129190;27;20088;-85
2022/07/22 09:12:34;;;;;;;10.13;3.92;;;;;;;28.44;31.90;95412.44;5149731;27;20030;-85
2022/07/22 09:15:02;;;;;;;14.73;4.95;;;;;;;28.42;31.99;95391.00;5117388;27;20038;-85
2022/07/22 09:17:36;;;;;;;12.38;4.75;;;;;;;28.59;31.54;95411.34;5127667;27;20043;-85
2022/07/22 09:20:05;;;;;;;15.27;5.10;;;;;;;28.09;31.83;95344.81;5135805;27;20106;-85
2022/07/22 09:22:44;;;;;;;10.93;4.50;;;;;;;28.40;31.13;95385.13;5131900;27;20094;-86
2022/07/22 09:25:18;;;;;;;18.35;4.60;;;;;;;28.68;31.47;95419.97;5135147;27;20030;-86
2022/07/22 09:27:43;;;;;;;11.52;4.40;;;;;;;28.74;31.95;95404.78;5118798;27;20034;-86
2022/07/22 09:30:21;;;;;;;17.05;4.57;;;;;;;28.78;31.20;95415.72;5131611;27;20034;-85
2022/07/22 09:32:48;;;;;;;10.60;4.25;;;;;;;28.81;30.63;95390.41;5114961;27;20031;-85
2022/07/22 09:35:14;;;;;;;17.67;5.82;;;;;;;28.76;30.64;95375.16;5118322;27;20031;-85
2022/07/22 09:37:52;;;;;;;13.50;4.70;;;;;;;28.44;30.98;95311.50;5117295;27;20070;-85
2022/07/22 09:40:23;;;;;;;9.75;4.57;;;;;;;27.46;30.87;95152.56;5129914;27;20066;-85
2022/07/22 09:42:50;;;;;;;10.02;4.68;;;;;;;29.15;31.06;95410.75;5108544;27;20131;-86
2022/07/22 09:45:17;;;;;;;12.82;5.10;;;;;;;28.98;30.83;95381.50;5125800;27;20348;-86
2022/07/22 09:47:44;;;;;;;10.50;4.47;;;;;;;29.23;30.51;95405.31;5107871;27;20042;-86
2022/07/22 09:50:24;;;;;;;12.68;5.10;;;;;;;28.93;30.68;95349.09;5110983;28;20055;-86
2022/07/22 09:52:51;;;;;;;9.70;3.95;;;;;;;29.06;30.60;95303.09;5114630;28;20027;-85
2022/07/22 09:55:19;;;;;;;8.50;4.50;;;;;;;30.42;28.79;95397.50;5124650;27;20057;-86
2022/07/22 09:57:45;;;;;;;8.93;4.30;;;;;;;30.81;28.00;95298.84;5132228;27;20469;-86
2022/07/22 10:00:16;;;;;;;10.35;4.07;;;;;;;31.81;26.85;95296.91;5104155;27;20028;-85
2022/07/22 10:02:45;;;;;;;9.18;3.95;;;;;;;33.37;25.16;95391.13;5149361;27;20069;-85
2022/07/22 10:05:12;;;;;;;12.35;4.50;;;;;;;33.88;24.29;95383.66;5097604;28;20131;-86
2022/07/22 10:07:40;;;;;;;6.95;4.18;;;;;;;34.56;23.42;95355.72;5116315;27;20034;-86
2022/07/22 10:10:07;;;;;;;8.63;4.30;;;;;;;35.05;22.66;95346.41;5124135;27;20053;-86
2022/07/22 10:12:34;;;;;;;11.05;4.07;;;;;;;35.69;22.22;95314.59;5112961;28;20046;-86
2022/07/22 10:15:00;;;;;;;8.55;4.57;;;;;;;36.41;21.43;95327.34;5112054;28;20052;-86
2022/07/22 10:17:26;;;;;;;6.97;4.03;;;;;;;37.27;20.79;95362.38;5131249;27;20114;-86
2022/07/22 10:19:51;;;;;;;12.70;3.90;;;;;;;37.76;20.30;95346.97;5124417;27;20037;-86
2022/07/22 10:22:39;;;;;;;9.00;3.70;;;;;;;38.34;19.59;95365.97;5114320;28;20579;-86
2022/07/22 10:25:12;;;;;;;8.93;3.88;;;;;;;38.43;19.64;95352.22;5112034;28;20058;-86
2022/07/22 10:28:04;;;;;;;13.30;4.50;;;;;;;38.39;19.21;95348.00;5131699;27;20386;-85
2022/07/22 10:30:40;;;;;;;12.10;4.18;;;;;;;38.70;18.69;95357.19;5095244;27;20035;-86
2022/07/22 10:33:17;;;;;;;7.32;3.85;;;;;;;38.45;18.97;95337.91;5102976;28;20114;-86
2022/07/22 10:35:42;;;;;;;11.07;3.50;;;;;;;38.37;18.64;95361.53;5119786;28;20047;-85
2022/07/22 10:38:10;;;;;;;8.20;4.25;;;;;;;38.53;18.66;95375.22;5140483;27;20095;-85
2022/07/22 10:40:46;;;;;;;9.13;4.18;;;;;;;37.44;18.94;95297.41;5151147;27;20035;-85
2022/07/22 10:43:13;;;;;;;8.88;3.58;;;;;;;38.32;18.40;95364.88;5134143;28;20069;-86
2022/07/22 10:45:51;;;;;;;10.77;3.72;;;;;;;38.17;18.58;95368.13;5112163;28;20080;-86
2022/07/22 10:48:25;;;;;;;9.98;3.60;;;;;;;38.57;18.47;95364.78;5111128;27;20027;-86
2022/07/22 10:50:55;;;;;;;7.43;4.32;;;;;;;38.44;19.20;95373.16;5148963;27;20122;-86
2022/07/22 10:53:41;;;;;;;10.73;4.53;;;;;;;38.74;18.62;95368.94;5134054;27;20039;-85
2022/07/22 10:56:15;;;;;;;8.70;3.70;;;;;;;38.41;17.93;95320.63;5124086;27;20035;-86
2022/07/22 10:58:43;;;;;;;7.53;3.55;;;;;;;37.53;18.17;95161.97;5117932;27;20416;-86
2022/07/22 11:01:11;;;;;;;11.27;3.90;;;;;;;38.99;18.16;95320.88;5114024;27;20065;-86
2022/07/22 11:03:39;;;;;;;8.02;4.57;;;;;;;39.34;18.74;95358.34;5111093;27;20039;-86
2022/07/22 11:06:27;;;;;;;7.55;4.00;;;;;;;39.36;18.44;95314.25;5147511;27;20128;-86
2022/07/22 11:09:01;;;;;;;11.68;4.13;;;;;;;39.71;18.55;95334.25;5118318;27;20035;-86
2022/07/22 11:11:41;;;;;;;11.50;4.15;;;;;;;39.71;18.29;95361.25;5137466;27;20043;-86
2022/07/22 11:14:14;;;;;;;11.43;3.57;;;;;;;39.65;17.57;95357.53;5123538;27;20543;-85
2022/07/22 11:16:39;;;;;;;9.73;3.60;;;;;;;39.63;17.35;95298.94;5125923;27;20032;-86
2022/07/22 11:19:05;;;;;;;21.80;4.72;;;;;;;39.89;17.18;95328.00;5139076;27;20091;-86
2022/07/22 11:21:32;;;;;;;10.73;4.30;;;;;;;39.60;17.43;95234.00;5132475;27;20027;-86
2022/07/22 11:24:02;;;;;;;10.27;3.65;;;;;;;40.24;17.03;95297.16;5153127;27;20031;-87